NCAR-RAP Real-Time Weather Data

Output produced by METARs form (26 May 2022  07:24 UTC)
found at http://weather.rap.ucar.edu/surface/
 
KCHA 260653Z AUTO 17007KT 10SM OVC015 21/18 A3004 RMK AO2 RAB27E44 SLP167 P0001 T02060183
KCHA 260553Z AUTO 17008KT 10SM BKN016 BKN075 21/18 A3004 RMK AO2 SLP167 T02110178 10211 20206 58008
KCHA 260541Z AUTO 16007G16KT 10SM SCT017 SCT075 21/18 A3005 RMK AO2 T02110178
KCHA 260453Z AUTO 17009G17KT 10SM OVC017 21/18 A3006 RMK AO2 SLP173 T02110178 402500189
KCHA 260432Z AUTO 17008G15KT 140V200 10SM SCT017 BKN024 OVC110 21/18 A3006 RMK AO2 T02110178
KCHA 260353Z 17007KT 8SM FEW033 SCT050 BKN130 OVC250 21/18 A3007 RMK AO2 SLP175 LAST T02060178
KCHA 260253Z 18005KT 9SM FEW015 SCT045 BKN060 OVC250 21/18 A3007 RMK AO2 SLP175 T02110178 55000
KCHA 260153Z 17006KT 9SM SCT017 SCT055 BKN250 21/18 A3005 RMK AO2 SLP171 T02110183
KCHA 260149Z 16007G16KT 9SM SCT017 SCT060 BKN250 21/18 A3005 RMK AO2
KCHA 260053Z 16003KT 9SM BKN016 OVC022 21/19 A3007 RMK AO2 SLP176 T02110189
KCHA 260023Z 17004KT 8SM FEW012 BKN018 OVC035 21/19 A3007 RMK AO2 T02110189
KCHA 252353Z 18004KT 10SM FEW018 BKN036 BKN250 21/19 A3006 RMK AO2 SLP173 60005 T02110189 10250 20211 55003
KCHA 252327Z 17005KT 8SM SCT018 BKN036 BKN250 21/19 A3005 RMK AO2 T02110189
KCHA 252253Z 16006KT 7SM BKN015 BKN022 BKN250 21/18 A3005 RMK AO2 RAE35 SLP169 P0001 T02110183
KCHA 252228Z 17006KT 6SM -RA BR SCT018 BKN027 OVC046 21/19 A3005 RMK AO2 P0001 T02110189
KCHA 252153Z 14006KT 8SM -RA SCT033 BKN075 OVC100 21/19 A3005 RMK AO2 SLP170 P0004 T02110189
KCHA 252053Z 15010G16KT 10SM -RA FEW020 BKN075 OVC100 22/18 A3007 RMK AO2 RAB1958 SLP175 P0000 60000 T02220183 58010
KCHA 251953Z 17007KT 10SM SCT026 OVC032 23/17 A3008 RMK AO2 SLP179 T02330172
KCHA 251912Z 17013G22KT 10SM BKN031 BKN037 BKN250 24/17 A3008 RMK AO2 T02390172
KCHA 251853Z 16011KT 10SM BKN029 BKN035 BKN250 24/17 A3008 RMK AO2 SLP181 T02440172
KCHA 251753Z 16011G20KT 10SM BKN029 BKN035 BKN250 24/18 A3009 RMK AO2 SLP184 T02440178 10250 20194 50001
KCHA 251653Z 13012KT 10SM BKN025 BKN030 BKN250 24/18 A3010 RMK AO2 SLP185 T02440178
KCHA 251553Z 16013G20KT 10SM BKN023 23/18 A3012 RMK AO2 SLP192 T02330178
KCHA 251453Z 14007KT 10SM OVC019 23/19 A3009 RMK AO2 SLP184 T02280189 58002
KCHA 251407Z VRB03KT 10SM OVC016 22/19 A3012 RMK AO2 T02170189
KCHA 251353Z VRB03KT 10SM OVC013 22/19 A3011 RMK AO2 SLP191 T02170189
KCHA 251320Z 00000KT 10SM BKN014 OVC019 21/18 A3011 RMK AO2 T02110183
KCHA 251253Z 00000KT 8SM FEW003 BKN020 BKN250 21/18 A3011 RMK AO2 SLP191 T02060183
KCHA 251228Z 00000KT 6SM BR SCT003 SCT020 BKN250 21/18 A3011 RMK AO2 VIS SW-W 2 T02060183
KCHA 251153Z 06004KT 2SM BR OVC003 19/18 A3010 RMK AO2 SLP186 70074 T01890178 10194 20189 51006
KCHA 251137Z 35003KT 2SM R02/4500VP6000FT BR OVC003 19/18 A3010 RMK AO2 T01940183
KCHA 251113Z 00000KT 1 3/4SM R02/4000VP6000FT BR OVC002 19/18 A3010 RMK AO2 T01890183 $
KCHA 251057Z 10003KT 3/4SM R02/P6000FT BR VV002 19/18 A3010 RMK AO2 T01890183 $
KCHA 251053Z 00000KT 1SM R02/P6000FT BR OVC003 19/18 A3009 RMK AO2 SLP184 T01890183 $
KCHA 251048Z 00000KT 1SM R02/P6000FT BR OVC003 19/18 A3009 RMK AO2 $
KCHA 251037Z 04003KT 1 3/4SM BR OVC003 19/18 A3009 RMK AO2 T01940183 $
KCHA 250953Z 00000KT 4SM BR BKN004 19/18 A3009 RMK AO2 SLP183 T01940183 $
KCHA 250932Z AUTO 00000KT 10SM OVC004 19/18 A3009 RMK AO2 T01940183 $
KCHA 250923Z AUTO 00000KT 10SM BKN005 19/18 A3009 RMK AO2 T01940183 $
KCHA 250908Z AUTO 00000KT 10SM FEW005 SCT100 19/18 A3009 RMK AO2 T01940183 $
KCHA 250853Z AUTO 00000KT 10SM SCT100 19/18 A3008 RMK AO2 SLP180 T01890178 53001 $
KCHA 250753Z AUTO 01003KT 10SM BKN005 19/18 A3007 RMK AO2 SLP177 T01940183 $
KCHA 250653Z AUTO 05004KT 10SM OVC007 19/18 A3008 RMK AO2 CIG 006V009 SLP180 T01940183 $
KCHA 250644Z AUTO 06004KT 10SM OVC007 19/18 A3008 RMK AO2 CIG 006V010 T01940183 $
KCHA 250600Z AUTO 01003KT 10SM BKN012 BKN017 BKN110 19/18 A3008 RMK AO2 T01940183 $
KCHA 250553Z AUTO 03004KT 10SM SCT015 SCT110 19/18 A3008 RMK AO2 RAE13 SLP180 P0002 60074 T01940178 10244 20189 58009 $
KCHA 250535Z AUTO 00000KT 10SM SCT019 SCT110 19/18 A3008 RMK AO2 RAE13 P0002 T01940178 $
KCHA 250513Z AUTO 00000KT 10SM BKN022 BKN040 19/18 A3010 RMK AO2 RAE13 P0002 T01940178 $
KCHA 250453Z AUTO 00000KT 6SM RA BR FEW028 BKN046 OVC110 19/18 A3010 RMK AO2 RAB24 SLP188 P0006 T01940178 402670172 $
KCHA 250353Z 13004KT 10SM SCT032 SCT075 BKN100 19/18 A3011 RMK AO2 LTG DSNT S RAE24 TSE00 SLP191 TS DSTPD CB DSNT S LAST P0003 T01940178 $
KCHA 250302Z 32005KT 4SM -RA BR SCT029 BKN075 BKN100 19/18 A3010 RMK AO2 LTG DSNT SE TSE00 TS DSTPD CB DSNT SE P0001 T01890178 $
KCHA 250253Z 31004KT 2SM TSRA BR SCT031CB BKN070 BKN100 19/18 A3011 RMK AO2 LTG DSNT SE PRESFR SLP190 ONCL LTGICCG NE-E TS NE-E MOV NE CB DSNT SE AND S P0063 60063 T01890178 51020 $
KCHA 250235Z 14006KT 1 1/2SM R02/5000VP6000FT +TSRA BR SCT042CB BKN070 BKN085 19/18 A3014 RMK AO2 PRESRR ONCL LTGICCG E-SE TS E-SE MOV NE CB DSNT N P0023 T01940183 $
KCHA 250153Z 25013G34KT 4SM -TSRA SCT033CB BKN049 BKN075 21/17 A3010 RMK AO2 PK WND 24034/0148 LTG DSNT SW AND W RAB47 TSB44 SLP188 ONCL LTGICCG OHD-SW-W TS OHD-SW-W MOV NE T02060172 PNO $
KCHA 250145Z 23010G18KT 10SM TS SCT033CB BKN075 BKN130 23/19 A3010 RMK AO2 LTG DSNT SW AND W TSB44 PRESRR ONCL LTGICCG SW-W TS SW-W MOV NE T02280194
KCHA 250053Z 02005KT 10SM FEW035 SCT070 BKN140 23/19 A3006 RMK AO2 SLP174 T02330194
KCHA 242353Z 36006KT 10SM SCT033 BKN065 BKN120 24/19 A3005 RMK AO2 SLP168 T02440194 10267 20228 53002
KCHA 242253Z 14005KT 10SM SCT031 BKN070 BKN150 26/19 A3004 RMK AO2 SLP167 T02560189
KCHA 242219Z 16005KT 10SM SCT031 BKN070 BKN150 26/19 A3004 RMK AO2 T02560189
KCHA 242153Z VRB03KT 10SM BKN027 BKN070 BKN150 26/19 A3004 RMK AO2 SLP167 T02610189
KCHA 242146Z 00000KT 10SM R02/6000VP6000FT BKN027 BKN070 BKN150 26/18 A3004 RMK AO2 T02560183
KCHA 242053Z VRB03KT 10SM SCT026 SCT075 BKN160 BKN250 26/18 A3004 RMK AO2 SLP166 T02560183 58020
KCHA 241953Z 05003KT 10SM SCT026 SCT075 BKN160 BKN250 26/18 A3006 RMK AO2 SLP174 T02560183
KCHA 241853Z 00000KT 10SM SCT020 BKN160 BKN250 24/18 A3009 RMK AO2 SLP182 T02390178
KCHA 241814Z 00000KT 10SM SCT020 BKN150 OVC250 23/17 A3009 RMK AO2 T02330172
KCHA 241753Z 20003KT 10SM BKN020 BKN150 OVC250 23/17 A3010 RMK AO2 SLP188 T02280172 10233 20183 57008 $
KCHA 241743Z VRB03KT 10SM BKN020 BKN150 BKN250 23/17 A3010 RMK AO2 T02280167 $
KCHA 241653Z 04006KT 10SM SCT018 BKN150 BKN250 23/17 A3010 RMK AO2 SLP187 T02330172 $
KCHA 241642Z 05005KT 10SM SCT018 BKN150 BKN250 23/17 A3011 RMK AO2 T02280167 $
KCHA 241553Z 08005KT 10SM OVC015 22/17 A3013 RMK AO2 SLP196 T02170167 $
KCHA 241549Z 05005KT 10SM OVC015 21/17 A3013 RMK AO2 $
KCHA 241453Z 07003KT 10SM OVC012 20/16 A3013 RMK AO2 SLP196 T02000161 50001 $
KCHA 241353Z 03006KT 10SM OVC010 19/16 A3013 RMK AO2 SLP197 T01940161 $
KCHA 241253Z 00000KT 10SM OVC009 18/16 A3012 RMK AO2 SLP196 T01830156 $
KCHA 241228Z 10004KT 10SM OVC009 18/16 A3011 RMK AO2 T01830156 $
KCHA 241153Z 02004KT 10SM OVC010 18/16 A3010 RMK AO2 SLP186 70076 T01830156 10183 20172 53010 $
KCHA 241104Z 09003KT 10SM OVC010 18/16 A3009 RMK AO2 CIG 008V013 T01780156 $
KCHA 241053Z 08004KT 10SM OVC008 18/16 A3008 RMK AO2 CIG 007V012 SLP181 T01780156 $
KCHA 240953Z 00000KT 10SM OVC008 18/16 A3007 RMK AO2 SLP175 T01780156 $
KCHA 240853Z AUTO 02003KT 10SM OVC008 18/16 A3007 RMK AO2 SLP175 T01780156 55004 $
KCHA 240753Z AUTO 05004KT 10SM OVC009 18/16 A3006 RMK AO2 SLP175 T01780156 $
KCHA 240737Z AUTO 04005KT 10SM OVC009 18/16 A3006 RMK AO2 T01780156 $